sensor_id;sensor_type;location;lat;lon;timestamp;pressure;altitude;pressure_sealevel;temperature;humidity
69667;BME280;66534;52.370;4.832;2024-03-25T00:00:15;100695.53;;;12.90;100.00
69667;BME280;66534;52.370;4.832;2024-03-25T00:00:45;100695.69;;;13.03;100.00
69667;BME280;66534;52.370;4.832;2024-03-25T00:01:16;100707.06;;;13.04;100.00
69667;BME280;66534;52.370;4.832;2024-03-25T00:01:46;100699.63;;;12.80;100.00
69667;BME280;66534;52.370;4.832;2024-03-25T00:02:17;100707.69;;;12.61;100.00
69667;BME280;66534;52.370;4.832;2024-03-25T00:02:47;100703.50;;;12.26;100.00
69667;BME280;66534;52.370;4.832;2024-03-25T00:03:17;100703.41;;;11.94;100.00
69667;BME280;66534;52.370;4.832;2024-03-25T00:03:48;100700.66;;;11.97;100.00
69667;BME280;66534;52.370;4.832;2024-03-25T00:04:18;100711.66;;;12.37;100.00
69667;BME280;66534;52.370;4.832;2024-03-25T00:04:51;100713.13;;;12.42;100.00
69667;BME280;66534;52.370;4.832;2024-03-25T00:05:21;100706.19;;;12.24;100.00
69667;BME280;66534;52.370;4.832;2024-03-25T00:05:55;100711.91;;;11.99;100.00
69667;BME280;66534;52.370;4.832;2024-03-25T00:06:27;100708.00;;;11.90;100.00
69667;BME280;66534;52.370;4.832;2024-03-25T00:06:57;100711.84;;;12.50;100.00
69667;BME280;66534;52.370;4.832;2024-03-25T00:07:28;100705.72;;;12.49;100.00
69667;BME280;66534;52.370;4.832;2024-03-25T00:07:59;100709.84;;;11.88;100.00
69667;BME280;66534;52.370;4.832;2024-03-25T00:08:29;100708.06;;;11.89;100.00
69667;BME280;66534;52.370;4.832;2024-03-25T00:09:00;100704.44;;;11.91;100.00
69667;BME280;66534;52.370;4.832;2024-03-25T00:09:31;100706.28;;;11.72;100.00
69667;BME280;66534;52.370;4.832;2024-03-25T00:10:02;100707.00;;;11.93;100.00
69667;BME280;66534;52.370;4.832;2024-03-25T00:10:33;100704.91;;;12.15;100.00
69667;BME280;66534;52.370;4.832;2024-03-25T00:11:03;100706.59;;;12.34;100.00
69667;BME280;66534;52.370;4.832;2024-03-25T00:11:34;100708.03;;;12.39;100.00
69667;BME280;66534;52.370;4.832;2024-03-25T00:12:04;100703.97;;;12.65;100.00
69667;BME280;66534;52.370;4.832;2024-03-25T00:12:35;100701.75;;;12.74;100.00
69667;BME280;66534;52.370;4.832;2024-03-25T00:13:05;100700.81;;;12.75;100.00
69667;BME280;66534;52.370;4.832;2024-03-25T00:13:36;100701.75;;;12.89;100.00
69667;BME280;66534;52.370;4.832;2024-03-25T00:14:06;100703.06;;;13.12;100.00
69667;BME280;66534;52.370;4.832;2024-03-25T00:14:37;100700.13;;;13.03;100.00
69667;BME280;66534;52.370;4.832;2024-03-25T00:15:07;100699.16;;;13.19;100.00
69667;BME280;66534;52.370;4.832;2024-03-25T00:15:38;100701.72;;;13.21;100.00
69667;BME280;66534;52.370;4.832;2024-03-25T00:16:09;100698.09;;;12.92;100.00
69667;BME280;66534;52.370;4.832;2024-03-25T00:16:39;100696.28;;;13.24;100.00
69667;BME280;66534;52.370;4.832;2024-03-25T00:17:12;100699.91;;;13.37;100.00
69667;BME280;66534;52.370;4.832;2024-03-25T00:17:43;100698.91;;;13.24;100.00
69667;BME280;66534;52.370;4.832;2024-03-25T00:18:14;100705.16;;;13.37;100.00
69667;BME280;66534;52.370;4.832;2024-03-25T00:18:44;100701.06;;;13.48;100.00
69667;BME280;66534;52.370;4.832;2024-03-25T00:19:15;100699.50;;;13.59;100.00
69667;BME280;66534;52.370;4.832;2024-03-25T00:19:46;100695.06;;;13.60;100.00
69667;BME280;66534;52.370;4.832;2024-03-25T00:20:20;100695.63;;;12.89;100.00
69667;BME280;66534;52.370;4.832;2024-03-25T00:20:51;100701.34;;;12.81;100.00
69667;BME280;66534;52.370;4.832;2024-03-25T00:21:21;100707.94;;;12.41;100.00
69667;BME280;66534;52.370;4.832;2024-03-25T00:21:52;100700.22;;;12.38;100.00
69667;BME280;66534;52.370;4.832;2024-03-25T00:22:23;100703.44;;;12.43;100.00
69667;BME280;66534;52.370;4.832;2024-03-25T00:22:57;100702.50;;;11.95;100.00
69667;BME280;66534;52.370;4.832;2024-03-25T00:23:27;100707.69;;;11.79;100.00
69667;BME280;66534;52.370;4.832;2024-03-25T00:23:57;100701.72;;;12.26;100.00
69667;BME280;66534;52.370;4.832;2024-03-25T00:24:28;100701.38;;;12.32;100.00
69667;BME280;66534;52.370;4.832;2024-03-25T00:24:58;100699.41;;;12.20;100.00
69667;BME280;66534;52.370;4.832;2024-03-25T00:25:29;100703.88;;;12.02;100.00
69667;BME280;66534;52.370;4.832;2024-03-25T00:25:59;100707.31;;;12.20;100.00
69667;BME280;66534;52.370;4.832;2024-03-25T00:26:29;100700.25;;;12.05;100.00
69667;BME280;66534;52.370;4.832;2024-03-25T00:27:00;100702.09;;;12.03;100.00
69667;BME280;66534;52.370;4.832;2024-03-25T00:27:30;100705.53;;;12.36;100.00
69667;BME280;66534;52.370;4.832;2024-03-25T00:28:00;100704.56;;;12.06;100.00
69667;BME280;66534;52.370;4.832;2024-03-25T00:28:31;100703.06;;;11.84;100.00
69667;BME280;66534;52.370;4.832;2024-03-25T00:29:01;100698.53;;;12.04;100.00
69667;BME280;66534;52.370;4.832;2024-03-25T00:29:32;100707.69;;;12.45;100.00
69667;BME280;66534;52.370;4.832;2024-03-25T00:30:02;100700.16;;;12.71;100.00
69667;BME280;66534;52.370;4.832;2024-03-25T00:30:33;100702.41;;;12.45;100.00
69667;BME280;66534;52.370;4.832;2024-03-25T00:31:04;100703.63;;;12.56;100.00
69667;BME280;66534;52.370;4.832;2024-03-25T00:31:34;100699.47;;;12.52;100.00
69667;BME280;66534;52.370;4.832;2024-03-25T00:32:05;100706.25;;;12.56;100.00
69667;BME280;66534;52.370;4.832;2024-03-25T00:32:38;100706.56;;;12.50;100.00
69667;BME280;66534;52.370;4.832;2024-03-25T00:33:08;100703.31;;;12.13;100.00
69667;BME280;66534;52.370;4.832;2024-03-25T00:33:38;100694.53;;;12.45;100.00
69667;BME280;66534;52.370;4.832;2024-03-25T00:34:09;100696.28;;;12.13;100.00
69667;BME280;66534;52.370;4.832;2024-03-25T00:34:39;100696.34;;;12.12;100.00
69667;BME280;66534;52.370;4.832;2024-03-25T00:35:09;100694.97;;;12.38;100.00
69667;BME280;66534;52.370;4.832;2024-03-25T00:35:40;100703.09;;;12.49;100.00
69667;BME280;66534;52.370;4.832;2024-03-25T00:36:10;100693.34;;;12.35;100.00
69667;BME280;66534;52.370;4.832;2024-03-25T00:36:41;100693.81;;;12.10;100.00
69667;BME280;66534;52.370;4.832;2024-03-25T00:37:11;100698.16;;;12.27;100.00
69667;BME280;66534;52.370;4.832;2024-03-25T00:37:43;100691.66;;;12.34;100.00
69667;BME280;66534;52.370;4.832;2024-03-25T00:38:15;100697.38;;;12.09;100.00
69667;BME280;66534;52.370;4.832;2024-03-25T00:38:45;100695.38;;;12.30;100.00
69667;BME280;66534;52.370;4.832;2024-03-25T00:39:15;100697.13;;;12.14;100.00
69667;BME280;66534;52.370;4.832;2024-03-25T00:39:47;100689.84;;;12.35;100.00
69667;BME280;66534;52.370;4.832;2024-03-25T00:40:17;100692.75;;;12.62;100.00
69667;BME280;66534;52.370;4.832;2024-03-25T00:40:47;100692.44;;;12.68;100.00
69667;BME280;66534;52.370;4.832;2024-03-25T00:41:18;100696.50;;;12.74;100.00
69667;BME280;66534;52.370;4.832;2024-03-25T00:41:48;100698.78;;;12.80;100.00
69667;BME280;66534;52.370;4.832;2024-03-25T00:42:19;100688.91;;;12.99;100.00
69667;BME280;66534;52.370;4.832;2024-03-25T00:42:50;100694.28;;;12.82;100.00
69667;BME280;66534;52.370;4.832;2024-03-25T00:43:20;100693.00;;;12.73;100.00
69667;BME280;66534;52.370;4.832;2024-03-25T00:43:50;100693.59;;;12.78;100.00
69667;BME280;66534;52.370;4.832;2024-03-25T00:44:21;100696.94;;;12.50;100.00
69667;BME280;66534;52.370;4.832;2024-03-25T00:44:51;100694.41;;;12.15;100.00
69667;BME280;66534;52.370;4.832;2024-03-25T00:45:21;100686.88;;;12.25;100.00
69667;BME280;66534;52.370;4.832;2024-03-25T00:45:52;100696.16;;;12.64;100.00
69667;BME280;66534;52.370;4.832;2024-03-25T00:46:22;100686.38;;;12.98;100.00
69667;BME280;66534;52.370;4.832;2024-03-25T00:46:53;100696.28;;;13.08;100.00
69667;BME280;66534;52.370;4.832;2024-03-25T00:47:23;100689.66;;;13.17;100.00
69667;BME280;66534;52.370;4.832;2024-03-25T00:47:53;100696.47;;;13.05;100.00
69667;BME280;66534;52.370;4.832;2024-03-25T00:48:24;100696.31;;;12.77;100.00
69667;BME280;66534;52.370;4.832;2024-03-25T00:48:54;100699.63;;;12.96;100.00
69667;BME280;66534;52.370;4.832;2024-03-25T00:49:25;100636.31;;;12.36;100.00
69667;BME280;66534;52.370;4.832;2024-03-25T00:49:56;100701.16;;;12.84;100.00
69667;BME280;66534;52.370;4.832;2024-03-25T00:50:26;100697.22;;;13.07;100.00
69667;BME280;66534;52.370;4.832;2024-03-25T00:50:56;100694.91;;;13.33;100.00
69667;BME280;66534;52.370;4.832;2024-03-25T00:51:27;100690.69;;;12.99;100.00
69667;BME280;66534;52.370;4.832;2024-03-25T00:51:57;100700.84;;;12.59;100.00
69667;BME280;66534;52.370;4.832;2024-03-25T00:52:28;100696.66;;;12.70;100.00
69667;BME280;66534;52.370;4.832;2024-03-25T00:52:58;100699.03;;;12.43;100.00
69667;BME280;66534;52.370;4.832;2024-03-25T00:53:29;100698.44;;;12.86;100.00
69667;BME280;66534;52.370;4.832;2024-03-25T00:53:59;100691.94;;;13.07;100.00
69667;BME280;66534;52.370;4.832;2024-03-25T00:54:32;100697.00;;;12.96;100.00
69667;BME280;66534;52.370;4.832;2024-03-25T00:55:03;100690.66;;;13.14;100.00
69667;BME280;66534;52.370;4.832;2024-03-25T00:55:33;100686.78;;;13.06;100.00
69667;BME280;66534;52.370;4.832;2024-03-25T00:56:05;100688.22;;;12.95;100.00
69667;BME280;66534;52.370;4.832;2024-03-25T00:56:35;100693.34;;;12.83;100.00
69667;BME280;66534;52.370;4.832;2024-03-25T00:57:06;100691.38;;;12.70;100.00
69667;BME280;66534;52.370;4.832;2024-03-25T00:57:37;100695.53;;;12.75;100.00
69667;BME280;66534;52.370;4.832;2024-03-25T00:58:08;100688.47;;;13.07;100.00
69667;BME280;66534;52.370;4.832;2024-03-25T00:58:38;100691.53;;;12.99;100.00
69667;BME280;66534;52.370;4.832;2024-03-25T00:59:09;100693.56;;;13.10;100.00
69667;BME280;66534;52.370;4.832;2024-03-25T00:59:39;100700.44;;;13.28;100.00
69667;BME280;66534;52.370;4.832;2024-03-25T01:00:10;100701.25;;;13.44;100.00
69667;BME280;66534;52.370;4.832;2024-03-25T01:00:41;100699.53;;;12.82;100.00
69667;BME280;66534;52.370;4.832;2024-03-25T01:01:11;100694.97;;;12.69;100.00
69667;BME280;66534;52.370;4.832;2024-03-25T01:01:42;100697.22;;;12.91;100.00
69667;BME280;66534;52.370;4.832;2024-03-25T01:02:12;100697.00;;;12.80;100.00
69667;BME280;66534;52.370;4.832;2024-03-25T01:02:42;100694.09;;;13.01;100.00
69667;BME280;66534;52.370;4.832;2024-03-25T01:03:13;100689.06;;;13.12;100.00
69667;BME280;66534;52.370;4.832;2024-03-25T01:03:43;100696.63;;;13.02;100.00
69667;BME280;66534;52.370;4.832;2024-03-25T01:04:14;100691.53;;;12.99;100.00
69667;BME280;66534;52.370;4.832;2024-03-25T01:04:44;100691.81;;;12.94;100.00
69667;BME280;66534;52.370;4.832;2024-03-25T01:05:14;100694.63;;;12.76;100.00
69667;BME280;66534;52.370;4.832;2024-03-25T01:05:45;100690.63;;;12.68;100.00
69667;BME280;66534;52.370;4.832;2024-03-25T01:06:15;100693.84;;;12.74;100.00
69667;BME280;66534;52.370;4.832;2024-03-25T01:06:46;100689.28;;;12.93;100.00
69667;BME280;66534;52.370;4.832;2024-03-25T01:07:16;100688.44;;;12.77;100.00
69667;BME280;66534;52.370;4.832;2024-03-25T01:07:46;100694.38;;;12.64;100.00
69667;BME280;66534;52.370;4.832;2024-03-25T01:08:17;100690.13;;;12.62;100.00
69667;BME280;66534;52.370;4.832;2024-03-25T01:08:47;100689.22;;;12.63;100.00
69667;BME280;66534;52.370;4.832;2024-03-25T01:09:18;100698.09;;;12.60;100.00
69667;BME280;66534;52.370;4.832;2024-03-25T01:09:48;100698.63;;;12.51;100.00
69667;BME280;66534;52.370;4.832;2024-03-25T01:10:19;100687.41;;;12.48;100.00
69667;BME280;66534;52.370;4.832;2024-03-25T01:10:49;100699.84;;;12.12;100.00
69667;BME280;66534;52.370;4.832;2024-03-25T01:11:20;100695.09;;;12.19;100.00
69667;BME280;66534;52.370;4.832;2024-03-25T01:11:51;100699.28;;;12.39;100.00
69667;BME280;66534;52.370;4.832;2024-03-25T01:12:22;100700.94;;;12.08;100.00
69667;BME280;66534;52.370;4.832;2024-03-25T01:12:52;100696.47;;;11.93;100.00
69667;BME280;66534;52.370;4.832;2024-03-25T01:13:23;100698.88;;;12.46;100.00
69667;BME280;66534;52.370;4.832;2024-03-25T01:13:53;100691.91;;;12.61;100.00
69667;BME280;66534;52.370;4.832;2024-03-25T01:14:23;100695.63;;;12.89;100.00
69667;BME280;66534;52.370;4.832;2024-03-25T01:14:54;100692.16;;;12.73;100.00
69667;BME280;66534;52.370;4.832;2024-03-25T01:15:24;100695.81;;;12.54;100.00
69667;BME280;66534;52.370;4.832;2024-03-25T01:15:57;100696.56;;;12.56;100.00
69667;BME280;66534;52.370;4.832;2024-03-25T01:16:28;100700.50;;;12.16;100.00
69667;BME280;66534;52.370;4.832;2024-03-25T01:16:58;100697.28;;;12.11;100.00
69667;BME280;66534;52.370;4.832;2024-03-25T01:17:28;100702.72;;;11.73;100.00
69667;BME280;66534;52.370;4.832;2024-03-25T01:17:59;100699.13;;;11.58;100.00
69667;BME280;66534;52.370;4.832;2024-03-25T01:18:29;100704.28;;;11.60;100.00
69667;BME280;66534;52.370;4.832;2024-03-25T01:18:59;100706.97;;;11.41;100.00
69667;BME280;66534;52.370;4.832;2024-03-25T01:19:30;100703.34;;;11.61;100.00
69667;BME280;66534;52.370;4.832;2024-03-25T01:20:00;100698.94;;;11.61;100.00
69667;BME280;66534;52.370;4.832;2024-03-25T01:20:30;100700.88;;;11.75;100.00
69667;BME280;66534;52.370;4.832;2024-03-25T01:21:01;100697.81;;;11.84;100.00
69667;BME280;66534;52.370;4.832;2024-03-25T01:21:31;100706.38;;;11.88;100.00
69667;BME280;66534;52.370;4.832;2024-03-25T01:22:02;100699.00;;;11.77;100.00
69667;BME280;66534;52.370;4.832;2024-03-25T01:22:32;100693.38;;;11.67;100.00
69667;BME280;66534;52.370;4.832;2024-03-25T01:23:03;100696.03;;;11.50;100.00
69667;BME280;66534;52.370;4.832;2024-03-25T01:23:34;100702.72;;;11.73;100.00
69667;BME280;66534;52.370;4.832;2024-03-25T01:24:05;100701.03;;;11.89;100.00
69667;BME280;66534;52.370;4.832;2024-03-25T01:24:35;100699.78;;;11.96;100.00
69667;BME280;66534;52.370;4.832;2024-03-25T01:25:06;100695.06;;;12.03;100.00
69667;BME280;66534;52.370;4.832;2024-03-25T01:25:37;100700.75;;;12.11;100.00
69667;BME280;66534;52.370;4.832;2024-03-25T01:26:07;100700.84;;;12.10;100.00
69667;BME280;66534;52.370;4.832;2024-03-25T01:26:37;100698.53;;;12.04;100.00
69667;BME280;66534;52.370;4.832;2024-03-25T01:27:08;100706.75;;;11.98;100.00
69667;BME280;66534;52.370;4.832;2024-03-25T01:27:38;100700.56;;;11.81;100.00
69667;BME280;66534;52.370;4.832;2024-03-25T01:28:09;100703.59;;;11.56;100.00
69667;BME280;66534;52.370;4.832;2024-03-25T01:28:39;100700.34;;;11.68;100.00
69667;BME280;66534;52.370;4.832;2024-03-25T01:29:09;100705.75;;;11.83;100.00
69667;BME280;66534;52.370;4.832;2024-03-25T01:29:40;100705.97;;;11.61;100.00
69667;BME280;66534;52.370;4.832;2024-03-25T01:30:10;100705.75;;;11.65;100.00
69667;BME280;66534;52.370;4.832;2024-03-25T01:30:42;100706.28;;;11.72;100.00
69667;BME280;66534;52.370;4.832;2024-03-25T01:31:13;100710.56;;;11.75;100.00
69667;BME280;66534;52.370;4.832;2024-03-25T01:31:44;100716.22;;;11.84;100.00
69667;BME280;66534;52.370;4.832;2024-03-25T01:32:14;100705.22;;;11.93;100.00
69667;BME280;66534;52.370;4.832;2024-03-25T01:32:44;100711.31;;;11.42;100.00
69667;BME280;66534;52.370;4.832;2024-03-25T01:33:18;100708.22;;;11.34;100.00
69667;BME280;66534;52.370;4.832;2024-03-25T01:33:48;100702.28;;;10.94;100.00
69667;BME280;66534;52.370;4.832;2024-03-25T01:34:19;100709.91;;;11.17;100.00
69667;BME280;66534;52.370;4.832;2024-03-25T01:34:49;100711.16;;;11.28;100.00
69667;BME280;66534;52.370;4.832;2024-03-25T01:35:20;100705.03;;;11.62;100.00
69667;BME280;66534;52.370;4.832;2024-03-25T01:35:50;100712.06;;;11.79;100.00
69667;BME280;66534;52.370;4.832;2024-03-25T01:36:21;100709.53;;;11.42;100.00
69667;BME280;66534;52.370;4.832;2024-03-25T01:36:51;100707.94;;;12.08;100.00
69667;BME280;66534;52.370;4.832;2024-03-25T01:37:22;100700.44;;;11.84;100.00
69667;BME280;66534;52.370;4.832;2024-03-25T01:37:52;100706.00;;;12.11;100.00
69667;BME280;66534;52.370;4.832;2024-03-25T01:38:23;100714.63;;;12.31;100.00
69667;BME280;66534;52.370;4.832;2024-03-25T01:38:58;100708.38;;;12.49;100.00
69667;BME280;66534;52.370;4.832;2024-03-25T01:39:52;100707.00;;;12.26;100.00
69667;BME280;66534;52.370;4.832;2024-03-25T01:40:22;100708.19;;;12.52;100.00
69667;BME280;66534;52.370;4.832;2024-03-25T01:40:53;100698.09;;;12.60;100.00
69667;BME280;66534;52.370;4.832;2024-03-25T01:41:24;100705.66;;;12.66;100.00
69667;BME280;66534;52.370;4.832;2024-03-25T01:41:54;100701.84;;;12.72;100.00
69667;BME280;66534;52.370;4.832;2024-03-25T01:42:24;100701.59;;;12.61;100.00
69667;BME280;66534;52.370;4.832;2024-03-25T01:42:56;100710.22;;;12.31;100.00
69667;BME280;66534;52.370;4.832;2024-03-25T01:43:26;100707.78;;;12.44;100.00
69667;BME280;66534;52.370;4.832;2024-03-25T01:43:57;100706.50;;;12.51;100.00
69667;BME280;66534;52.370;4.832;2024-03-25T01:44:27;100704.38;;;12.58;100.00
69667;BME280;66534;52.370;4.832;2024-03-25T01:44:57;100701.34;;;12.81;100.00
69667;BME280;66534;52.370;4.832;2024-03-25T01:45:29;100707.13;;;12.72;100.00
69667;BME280;66534;52.370;4.832;2024-03-25T01:46:01;100703.00;;;12.66;100.00
69667;BME280;66534;52.370;4.832;2024-03-25T01:46:31;100696.25;;;12.46;100.00
69667;BME280;66534;52.370;4.832;2024-03-25T01:47:02;100700.00;;;12.58;100.00
69667;BME280;66534;52.370;4.832;2024-03-25T01:47:32;100709.03;;;12.53;100.00
69667;BME280;66534;52.370;4.832;2024-03-25T01:48:06;100701.66;;;12.43;100.00
69667;BME280;66534;52.370;4.832;2024-03-25T01:48:37;100712.28;;;12.42;100.00
69667;BME280;66534;52.370;4.832;2024-03-25T01:49:08;100709.81;;;12.70;100.00
69667;BME280;66534;52.370;4.832;2024-03-25T01:49:39;100713.56;;;12.51;100.00
69667;BME280;66534;52.370;4.832;2024-03-25T01:50:10;100705.50;;;12.38;100.00
69667;BME280;66534;52.370;4.832;2024-03-25T01:50:43;100701.59;;;12.12;100.00
69667;BME280;66534;52.370;4.832;2024-03-25T01:51:16;100709.91;;;12.04;100.00
69667;BME280;66534;52.370;4.832;2024-03-25T01:51:47;100707.06;;;12.25;100.00
69667;BME280;66534;52.370;4.832;2024-03-25T01:52:18;100705.91;;;12.46;100.00
69667;BME280;66534;52.370;4.832;2024-03-25T01:52:50;100709.28;;;12.16;100.00
69667;BME280;66534;52.370;4.832;2024-03-25T01:53:21;100705.75;;;12.16;100.00
69667;BME280;66534;52.370;4.832;2024-03-25T01:53:53;100706.41;;;12.37;100.00
69667;BME280;66534;52.370;4.832;2024-03-25T01:54:25;100698.94;;;12.29;100.00
69667;BME280;66534;52.370;4.832;2024-03-25T01:54:57;100704.09;;;12.31;100.00
69667;BME280;66534;52.370;4.832;2024-03-25T01:55:28;100706.56;;;12.50;100.00
69667;BME280;66534;52.370;4.832;2024-03-25T01:56:00;100706.34;;;12.70;100.00
69667;BME280;66534;52.370;4.832;2024-03-25T01:56:33;100704.47;;;12.72;100.00
69667;BME280;66534;52.370;4.832;2024-03-25T01:57:05;100697.25;;;12.60;100.00
69667;BME280;66534;52.370;4.832;2024-03-25T01:57:36;100699.97;;;12.90;100.00
69667;BME280;66534;52.370;4.832;2024-03-25T01:58:08;100705.03;;;12.45;100.00
69667;BME280;66534;52.370;4.832;2024-03-25T01:58:39;100705.00;;;12.63;100.00
69667;BME280;66534;52.370;4.832;2024-03-25T01:59:09;100705.84;;;12.63;100.00
69667;BME280;66534;52.370;4.832;2024-03-25T01:59:40;100707.19;;;12.55;100.00
69667;BME280;66534;52.370;4.832;2024-03-25T02:00:11;100706.94;;;12.59;100.00
69667;BME280;66534;52.370;4.832;2024-03-25T02:00:43;100703.47;;;12.59;100.00
69667;BME280;66534;52.370;4.832;2024-03-25T02:01:14;100705.16;;;12.76;100.00
69667;BME280;66534;52.370;4.832;2024-03-25T02:01:45;100702.09;;;12.67;100.00
69667;BME280;66534;52.370;4.832;2024-03-25T02:02:16;100708.63;;;12.44;100.00
69667;BME280;66534;52.370;4.832;2024-03-25T02:02:46;100714.09;;;12.24;100.00
69667;BME280;66534;52.370;4.832;2024-03-25T02:03:17;100708.72;;;12.43;100.00
69667;BME280;66534;52.370;4.832;2024-03-25T02:03:48;100703.66;;;12.23;100.00
69667;BME280;66534;52.370;4.832;2024-03-25T02:04:18;100705.75;;;12.16;100.00
69667;BME280;66534;52.370;4.832;2024-03-25T02:04:49;100710.00;;;11.33;100.00
69667;BME280;66534;52.370;4.832;2024-03-25T02:05:20;100708.09;;;11.01;100.00
69667;BME280;66534;52.370;4.832;2024-03-25T02:05:50;100707.75;;;11.60;100.00
69667;BME280;66534;52.370;4.832;2024-03-25T02:06:26;100707.59;;;11.81;100.00
69667;BME280;66534;52.370;4.832;2024-03-25T02:06:57;100708.22;;;11.86;100.00
69667;BME280;66534;52.370;4.832;2024-03-25T02:07:29;100710.47;;;11.41;100.00
69667;BME280;66534;52.370;4.832;2024-03-25T02:08:01;100710.31;;;11.44;100.00
69667;BME280;66534;52.370;4.832;2024-03-25T02:08:33;100704.41;;;11.74;100.00
69667;BME280;66534;52.370;4.832;2024-03-25T02:09:04;100709.09;;;12.19;100.00
69667;BME280;66534;52.370;4.832;2024-03-25T02:09:36;100705.75;;;12.65;100.00
69667;BME280;66534;52.370;4.832;2024-03-25T02:10:07;100710.91;;;12.66;100.00
69667;BME280;66534;52.370;4.832;2024-03-25T02:10:44;100704.72;;;12.52;100.00
69667;BME280;66534;52.370;4.832;2024-03-25T02:11:15;100707.88;;;12.58;100.00
69667;BME280;66534;52.370;4.832;2024-03-25T02:11:46;100707.00;;;12.58;100.00
69667;BME280;66534;52.370;4.832;2024-03-25T02:12:16;100700.72;;;12.44;100.00
69667;BME280;66534;52.370;4.832;2024-03-25T02:12:47;100703.00;;;12.35;100.00
69667;BME280;66534;52.370;4.832;2024-03-25T02:13:17;100706.25;;;12.40;100.00
69667;BME280;66534;52.370;4.832;2024-03-25T02:13:48;100707.00;;;12.58;100.00
69667;BME280;66534;52.370;4.832;2024-03-25T02:14:19;100700.41;;;12.51;100.00
69667;BME280;66534;52.370;4.832;2024-03-25T02:14:50;100700.63;;;12.62;100.00
69667;BME280;66534;52.370;4.832;2024-03-25T02:15:20;100707.13;;;12.88;100.00
69667;BME280;66534;52.370;4.832;2024-03-25T02:15:51;100704.13;;;12.46;100.00
69667;BME280;66534;52.370;4.832;2024-03-25T02:16:23;100699.38;;;12.37;100.00
69667;BME280;66534;52.370;4.832;2024-03-25T02:16:53;100706.50;;;12.35;100.00
69667;BME280;66534;52.370;4.832;2024-03-25T02:17:24;100707.44;;;12.66;100.00
69667;BME280;66534;52.370;4.832;2024-03-25T02:17:54;100706.69;;;12.80;100.00
69667;BME280;66534;52.370;4.832;2024-03-25T02:18:25;100697.59;;;13.01;100.00
69667;BME280;66534;52.370;4.832;2024-03-25T02:18:55;100708.03;;;12.87;100.00
69667;BME280;66534;52.370;4.832;2024-03-25T02:19:25;100699.53;;;12.98;100.00
69667;BME280;66534;52.370;4.832;2024-03-25T02:19:56;100701.81;;;13.04;100.00
69667;BME280;66534;52.370;4.832;2024-03-25T02:20:27;100706.31;;;13.02;100.00
69667;BME280;66534;52.370;4.832;2024-03-25T02:20:58;100705.13;;;13.07;100.00
69667;BME280;66534;52.370;4.832;2024-03-25T02:21:29;100711.22;;;13.08;100.00
69667;BME280;66534;52.370;4.832;2024-03-25T02:22:01;100702.91;;;13.15;100.00
69667;BME280;66534;52.370;4.832;2024-03-25T02:22:32;100710.50;;;12.90;100.00
69667;BME280;66534;52.370;4.832;2024-03-25T02:23:03;100704.97;;;12.94;100.00
69667;BME280;66534;52.370;4.832;2024-03-25T02:23:34;100704.75;;;12.83;100.00
69667;BME280;66534;52.370;4.832;2024-03-25T02:24:05;100709.81;;;12.70;100.00
69667;BME280;66534;52.370;4.832;2024-03-25T02:24:39;100708.78;;;12.57;100.00
69667;BME280;66534;52.370;4.832;2024-03-25T02:25:11;100704.38;;;12.42;100.00
69667;BME280;66534;52.370;4.832;2024-03-25T02:25:48;100704.13;;;12.46;100.00
69667;BME280;66534;52.370;4.832;2024-03-25T02:26:19;100701.56;;;12.29;100.00
69667;BME280;66534;52.370;4.832;2024-03-25T02:26:50;100703.75;;;12.21;100.00
69667;BME280;66534;52.370;4.832;2024-03-25T02:27:21;100710.06;;;12.34;100.00
69667;BME280;66534;52.370;4.832;2024-03-25T02:27:52;100715.59;;;12.77;100.00
69667;BME280;66534;52.370;4.832;2024-03-25T02:28:22;100713.22;;;12.73;100.00
69667;BME280;66534;52.370;4.832;2024-03-25T02:28:53;100703.03;;;12.82;100.00
69667;BME280;66534;52.370;4.832;2024-03-25T02:29:23;100701.63;;;13.07;100.00
69667;BME280;66534;52.370;4.832;2024-03-25T02:30:03;100707.53;;;12.96;100.00
69667;BME280;66534;52.370;4.832;2024-03-25T02:30:34;100704.47;;;12.88;100.00
69667;BME280;66534;52.370;4.832;2024-03-25T02:31:06;100706.59;;;12.65;100.00
69667;BME280;66534;52.370;4.832;2024-03-25T02:31:37;100707.19;;;12.39;100.00
69667;BME280;66534;52.370;4.832;2024-03-25T02:32:07;100706.78;;;12.62;100.00
69667;BME280;66534;52.370;4.832;2024-03-25T02:32:41;100701.50;;;12.46;100.00
69667;BME280;66534;52.370;4.832;2024-03-25T02:33:11;100709.13;;;12.35;100.00
69667;BME280;66534;52.370;4.832;2024-03-25T02:33:42;100708.78;;;11.92;100.00
69667;BME280;66534;52.370;4.832;2024-03-25T02:34:12;100700.09;;;11.73;100.00
69667;BME280;66534;52.370;4.832;2024-03-25T02:34:44;100707.91;;;11.40;100.00
69667;BME280;66534;52.370;4.832;2024-03-25T02:35:17;100710.44;;;11.24;100.00
69667;BME280;66534;52.370;4.832;2024-03-25T02:35:47;100710.53;;;11.22;100.00
69667;BME280;66534;52.370;4.832;2024-03-25T02:36:18;100713.31;;;11.37;100.00
69667;BME280;66534;52.370;4.832;2024-03-25T02:36:49;100709.06;;;11.34;100.00
69667;BME280;66534;52.370;4.832;2024-03-25T02:37:19;100708.94;;;11.37;100.00
69667;BME280;66534;52.370;4.832;2024-03-25T02:37:50;100702.66;;;11.57;100.00
69667;BME280;66534;52.370;4.832;2024-03-25T02:38:22;100707.69;;;11.44;100.00
69667;BME280;66534;52.370;4.832;2024-03-25T02:38:53;100699.28;;;11.38;100.00
69667;BME280;66534;52.370;4.832;2024-03-25T02:39:23;100705.75;;;11.31;100.00
69667;BME280;66534;52.370;4.832;2024-03-25T02:39:54;100698.66;;;11.50;100.00